TW-0003 weather

CLOSED Highway Strip 58 60
Johngli City, Taoyuan County, Taiwan

Public forecast

Using degrees Celsius for public forecast. Weather courtesy of forecast.io.

Closest aviation weather report (METAR) to Highway Strip 58 60

Closest report is Taiwan Taoyuan International Airport, 6.1 nm (11.3 km) N. Retrieved 2020/04/02 17:30 UTC (16 minutes ago):

RCTP 021730Z 04012KT 9999 SCT010 BKN013 BKN020 19/18 Q1019 NOSIG RMK A3009

Closest aviation forecast (TAF) to Highway Strip 58 60

Closest forecast is Taiwan Taoyuan International Airport, 6.1 nm (11.3 km) N. Retrieved 2020/04/02 12:00 UTC (6 hours ago):

TAF RCTP 021100Z 0212/0318 04013KT 8000 FEW005 BKN011 TEMPO 0212/0218 5000 BR FEW007 BKN020 TEMPO 0219/0301 36015KT 3500 RA BR SCT003 BKN006 TEMPO 0301/0304 07010KT FEW008 BKN020 TEMPO 0304/0310 SCT005 BKN007 TEMPO 0310/0314 FEW008 BKN020 TEMPO 0314/0318 04008KT 4000 RA SCT003 BKN006